createdAt,value
2023-03-29T00:02:05.250Z,98948.31
2023-03-29T00:05:09.320Z,98932.31
2023-03-29T00:08:14.466Z,98942.06
2023-03-29T00:11:17.215Z,98943.97
2023-03-29T00:14:19.813Z,98944.44
2023-03-29T00:17:23.997Z,98943.81
2023-03-29T00:20:27.017Z,98933.47
2023-03-29T00:23:29.726Z,98918.78
2023-03-29T00:26:32.207Z,98918.00
2023-03-29T00:29:35.048Z,98923.84
2023-03-29T00:32:39.018Z,98924.84
2023-03-29T00:35:42.526Z,98924.97
2023-03-29T00:38:45.244Z,98906.41
2023-03-29T00:41:48.113Z,98903.91
2023-03-29T00:45:04.044Z,98897.38
2023-03-29T00:48:09.155Z,98896.22
2023-03-29T00:51:14.248Z,98901.72
2023-03-29T00:54:18.651Z,98898.19
2023-03-29T00:57:21.784Z,98900.31
2023-03-29T01:00:29.709Z,98894.22
2023-03-29T01:03:41.441Z,98889.63
2023-03-29T01:06:47.939Z,98887.47
2023-03-29T01:09:54.486Z,98886.66
2023-03-29T01:13:01.466Z,98877.63
2023-03-29T01:16:05.002Z,98873.66
2023-03-29T01:19:11.535Z,98863.00
2023-03-29T01:22:25.878Z,98859.56
2023-03-29T01:25:33.335Z,98854.88
2023-03-29T01:28:39.945Z,98851.47
2023-03-29T01:31:45.623Z,98846.41
2023-03-29T01:34:52.077Z,98846.94
2023-03-29T01:37:58.364Z,98846.84
2023-03-29T01:41:03.353Z,98831.66
2023-03-29T01:44:09.280Z,98840.97
2023-03-29T01:47:16.290Z,98818.81
2023-03-29T01:50:20.942Z,98819.31
2023-03-29T01:53:28.371Z,98816.53
2023-03-29T01:56:32.070Z,98812.81
2023-03-29T01:59:36.084Z,98802.44
2023-03-29T02:02:40.218Z,98786.09
2023-03-29T02:05:43.342Z,98782.53
2023-03-29T02:08:46.591Z,98768.69
2023-03-29T02:11:49.706Z,98765.38
2023-03-29T02:14:53.931Z,98764.28
2023-03-29T02:17:56.836Z,98757.16
2023-03-29T02:21:00.194Z,98760.47
2023-03-29T02:24:04.910Z,98766.50
2023-03-29T02:27:07.658Z,98759.59
2023-03-29T02:30:13.638Z,98776.78
2023-03-29T02:33:19.206Z,98763.69
2023-03-29T02:36:24.175Z,98762.09
2023-03-29T02:39:27.877Z,98769.38
2023-03-29T02:42:30.383Z,98763.41
2023-03-29T02:45:34.641Z,98764.81
2023-03-29T02:48:38.562Z,98755.13
2023-03-29T02:51:41.177Z,98746.59
2023-03-29T02:54:45.262Z,98733.88
2023-03-29T02:57:47.794Z,98724.53
2023-03-29T03:00:51.710Z,98710.88
2023-03-29T03:03:54.367Z,98700.53
2023-03-29T03:06:57.029Z,98691.69
2023-03-29T03:09:59.560Z,98687.84
2023-03-29T03:13:02.540Z,98688.53
2023-03-29T03:16:07.955Z,98691.66
2023-03-29T03:19:11.374Z,98702.63
2023-03-29T03:22:14.902Z,98714.25
2023-03-29T03:25:19.387Z,98709.56
2023-03-29T03:28:24.133Z,98714.16
2023-03-29T03:31:28.449Z,98712.81
2023-03-29T03:34:31.030Z,98715.72
2023-03-29T03:37:33.577Z,98698.88
2023-03-29T03:40:36.069Z,98698.59
2023-03-29T03:43:41.137Z,98704.44
2023-03-29T03:46:45.056Z,98695.47
2023-03-29T03:49:47.550Z,98690.91
2023-03-29T03:52:50.121Z,98699.06
2023-03-29T03:55:54.188Z,98705.53
2023-03-29T03:58:56.716Z,98700.09
2023-03-29T04:02:01.409Z,98700.09
2023-03-29T04:05:04.210Z,98708.88
2023-03-29T04:08:07.390Z,98705.03
2023-03-29T04:11:10.519Z,98715.81
2023-03-29T04:14:13.171Z,98706.50
2023-03-29T04:17:17.054Z,98710.00
2023-03-29T04:20:19.610Z,98709.00
2023-03-29T04:23:22.168Z,98706.59
2023-03-29T04:26:24.732Z,98708.38
2023-03-29T04:29:27.411Z,98710.66
2023-03-29T04:32:31.275Z,98703.91
2023-03-29T04:35:34.269Z,98716.97
2023-03-29T04:38:37.879Z,98715.81
2023-03-29T04:41:41.118Z,98716.53
2023-03-29T04:44:43.806Z,98721.03
2023-03-29T04:47:47.719Z,98706.59
2023-03-29T04:50:50.628Z,98708.88
2023-03-29T04:53:53.209Z,98711.34
2023-03-29T04:56:56.659Z,98713.97
2023-03-29T04:59:59.298Z,98705.97
2023-03-29T05:03:04.422Z,98704.91
2023-03-29T05:06:08.734Z,98708.31
2023-03-29T05:09:11.421Z,98700.63
2023-03-29T05:12:14.075Z,98696.59
2023-03-29T05:15:17.102Z,98709.63
2023-03-29T05:18:21.093Z,98703.88
2023-03-29T05:21:23.978Z,98704.28
2023-03-29T05:24:26.632Z,98705.19
2023-03-29T05:27:29.748Z,98710.38
2023-03-29T05:30:32.696Z,98710.22
2023-03-29T05:33:36.969Z,98702.56
2023-03-29T05:36:39.793Z,98708.41
2023-03-29T05:39:43.029Z,98709.41
2023-03-29T05:42:45.708Z,98711.78
2023-03-29T05:45:48.618Z,98705.41
2023-03-29T05:48:52.560Z,98707.22
2023-03-29T05:51:56.956Z,98700.16
2023-03-29T05:54:59.512Z,98709.28
2023-03-29T05:58:03.727Z,98704.63
2023-03-29T06:01:12.619Z,98701.94
2023-03-29T06:04:17.935Z,98706.16
2023-03-29T06:07:20.864Z,98702.16
2023-03-29T06:10:24.705Z,98714.50
2023-03-29T06:13:27.803Z,98711.19
2023-03-29T06:16:30.664Z,98710.72
2023-03-29T06:19:34.707Z,98719.41
2023-03-29T06:22:37.572Z,98715.41
2023-03-29T06:25:40.481Z,98720.56
2023-03-29T06:28:43.172Z,98721.19
2023-03-29T06:31:46.018Z,98719.41
2023-03-29T06:34:50.950Z,98724.88
2023-03-29T06:37:54.413Z,98725.50
2023-03-29T06:41:02.181Z,98721.75
2023-03-29T06:44:05.124Z,98729.00
2023-03-29T06:47:08.259Z,98727.38
2023-03-29T06:50:14.582Z,98738.09
2023-03-29T06:53:17.281Z,98738.03
2023-03-29T06:56:19.825Z,98736.06
2023-03-29T06:59:22.317Z,98749.03
2023-03-29T07:02:24.928Z,98746.59
2023-03-29T07:05:29.487Z,98752.38
2023-03-29T07:08:32.324Z,98756.00
2023-03-29T07:11:35.317Z,98751.25
2023-03-29T07:14:37.985Z,98759.66
2023-03-29T07:17:40.565Z,98758.63
2023-03-29T07:20:44.636Z,98764.38
2023-03-29T07:23:47.172Z,98761.78
2023-03-29T07:27:03.515Z,98762.75
2023-03-29T07:30:11.155Z,98769.75
2023-03-29T07:33:14.253Z,98762.25
2023-03-29T07:36:18.436Z,98764.03
2023-03-29T07:39:22.270Z,98767.59
2023-03-29T07:42:24.818Z,98773.88
2023-03-29T07:45:29.067Z,98778.81
2023-03-29T07:48:32.374Z,98782.22
2023-03-29T07:51:37.008Z,98786.16
2023-03-29T07:54:39.671Z,98785.13
2023-03-29T07:57:43.683Z,98790.47
2023-03-29T08:00:46.512Z,98787.94
2023-03-29T08:03:49.232Z,98789.81
2023-03-29T08:06:54.209Z,98784.06
2023-03-29T08:09:57.369Z,98777.06
2023-03-29T08:13:00.164Z,98784.03
2023-03-29T08:16:03.374Z,98791.44
2023-03-29T08:19:07.081Z,98780.53
2023-03-29T08:22:10.946Z,98786.53
2023-03-29T08:25:13.610Z,98782.94
2023-03-29T08:28:16.094Z,98777.69
2023-03-29T08:31:18.742Z,98773.47
2023-03-29T08:34:21.366Z,98781.94
2023-03-29T08:37:25.952Z,98782.63
2023-03-29T08:40:30.129Z,98770.00
2023-03-29T08:43:53.132Z,98771.13
2023-03-29T08:47:02.048Z,98773.63
2023-03-29T08:50:05.635Z,98782.13
2023-03-29T08:53:10.092Z,98776.84
2023-03-29T08:56:14.723Z,98769.00
2023-03-29T08:59:20.582Z,98777.38
2023-03-29T09:02:26.161Z,98762.53
2023-03-29T09:05:31.165Z,98764.88
2023-03-29T09:08:36.670Z,98773.00
2023-03-29T09:11:58.248Z,98771.66
2023-03-29T09:15:09.957Z,98775.28
2023-03-29T09:18:15.619Z,98767.22
2023-03-29T09:21:22.301Z,98758.94
2023-03-29T09:24:38.818Z,98763.22
2023-03-29T09:27:48.718Z,98763.75
2023-03-29T09:30:56.426Z,98760.34
2023-03-29T09:34:00.204Z,98754.63
2023-03-29T09:37:04.852Z,98755.59
2023-03-29T09:40:12.611Z,98743.00
2023-03-29T09:43:18.313Z,98733.63
2023-03-29T09:46:24.038Z,98738.50
2023-03-29T09:49:29.761Z,98740.34
2023-03-29T09:52:33.063Z,98737.25
2023-03-29T09:55:39.526Z,98733.00
2023-03-29T09:58:43.589Z,98727.72
2023-03-29T10:01:46.499Z,98726.44
2023-03-29T10:04:55.195Z,98738.22
2023-03-29T10:08:01.085Z,98726.41
2023-03-29T10:11:10.495Z,98728.94
2023-03-29T10:14:16.156Z,98726.13
2023-03-29T10:17:21.800Z,98723.28
2023-03-29T10:20:25.753Z,98716.78
2023-03-29T10:23:32.468Z,98723.22
2023-03-29T10:26:38.996Z,98718.03
2023-03-29T10:29:43.028Z,98720.13
2023-03-29T10:32:46.237Z,98714.31
2023-03-29T10:35:49.366Z,98720.88
2023-03-29T10:38:52.629Z,98712.78
2023-03-29T10:41:57.064Z,98703.72
2023-03-29T10:45:00.616Z,98705.06
2023-03-29T10:48:06.840Z,98698.31
2023-03-29T10:51:09.427Z,98685.34
2023-03-29T10:54:14.807Z,98681.78
2023-03-29T10:57:24.589Z,98670.44
2023-03-29T11:00:33.618Z,98687.75
2023-03-29T11:03:55.969Z,98694.91
2023-03-29T11:07:14.147Z,98685.19
2023-03-29T11:10:28.350Z,98671.72
2023-03-29T11:13:38.324Z,98666.53
2023-03-29T11:16:45.681Z,98674.44
2023-03-29T11:20:01.927Z,98654.06
2023-03-29T11:23:16.449Z,98654.50
2023-03-29T11:26:22.783Z,98642.97
2023-03-29T11:29:29.631Z,98644.47
2023-03-29T11:32:37.212Z,98651.81
2023-03-29T11:35:44.763Z,98648.31
2023-03-29T11:38:54.253Z,98643.63
2023-03-29T11:42:01.519Z,98644.28
2023-03-29T11:45:07.866Z,98645.53
2023-03-29T11:48:16.538Z,98645.53
2023-03-29T11:51:22.553Z,98639.19
2023-03-29T11:54:29.405Z,98629.28
2023-03-29T11:57:33.161Z,98640.69
2023-03-29T12:00:39.452Z,98634.63
2023-03-29T12:03:47.192Z,98631.09
2023-03-29T12:06:54.301Z,98610.97
2023-03-29T12:10:00.415Z,98607.84
2023-03-29T12:13:05.700Z,98603.44
2023-03-29T12:16:14.907Z,98608.78
2023-03-29T12:19:20.567Z,98601.28
2023-03-29T12:22:23.482Z,98602.31
2023-03-29T12:25:29.412Z,98608.97
2023-03-29T12:28:50.577Z,98609.41
2023-03-29T12:32:02.559Z,98604.22
2023-03-29T12:35:19.608Z,98623.59
2023-03-29T12:38:23.755Z,98600.94
2023-03-29T12:41:26.544Z,98615.16
2023-03-29T12:44:29.278Z,98609.69
2023-03-29T12:47:39.616Z,98630.31
2023-03-29T12:50:46.866Z,98631.16
2023-03-29T12:53:51.602Z,98644.44
2023-03-29T12:56:58.226Z,98641.19
2023-03-29T13:00:11.893Z,98642.91
2023-03-29T13:03:23.242Z,98639.25
2023-03-29T13:06:32.173Z,98633.69
2023-03-29T13:09:37.514Z,98635.34
2023-03-29T13:12:42.273Z,98636.72
2023-03-29T13:15:45.751Z,98643.38
2023-03-29T13:19:01.342Z,98634.50
2023-03-29T13:22:12.927Z,98634.72
2023-03-29T13:25:24.235Z,98629.56
2023-03-29T13:28:31.196Z,98635.78
2023-03-29T13:31:39.245Z,98646.53
2023-03-29T13:34:47.530Z,98638.94
2023-03-29T13:37:59.458Z,98640.69
2023-03-29T13:41:04.167Z,98645.13
2023-03-29T13:44:19.312Z,98636.91
2023-03-29T13:47:43.159Z,98643.44
2023-03-29T13:50:56.525Z,98656.28
2023-03-29T13:54:02.862Z,98647.03
2023-03-29T13:57:11.116Z,98648.66
2023-03-29T14:00:18.165Z,98655.38
2023-03-29T14:03:26.211Z,98659.31
2023-03-29T14:06:32.884Z,98661.50
2023-03-29T14:09:39.881Z,98650.25
2023-03-29T14:12:42.436Z,98648.44
2023-03-29T14:15:46.888Z,98652.97
2023-03-29T14:18:51.410Z,98652.47
2023-03-29T14:21:55.477Z,98643.47
2023-03-29T14:25:02.491Z,98632.09
2023-03-29T14:28:14.103Z,98641.31
2023-03-29T14:31:20.530Z,98621.63
2023-03-29T14:34:24.016Z,98625.63
2023-03-29T14:37:29.691Z,98626.53
2023-03-29T14:40:33.914Z,98628.53
2023-03-29T14:43:36.496Z,98606.66
2023-03-29T14:46:39.309Z,98618.78
2023-03-29T14:49:41.881Z,98601.06
2023-03-29T14:52:47.583Z,98598.25
2023-03-29T14:55:52.857Z,98584.75
2023-03-29T14:58:56.628Z,98589.88
2023-03-29T15:01:59.267Z,98592.75
2023-03-29T15:05:04.689Z,98585.31
2023-03-29T15:08:13.667Z,98579.50
2023-03-29T15:11:20.069Z,98572.69
2023-03-29T15:14:23.603Z,98560.81
2023-03-29T15:17:43.179Z,98555.56
2023-03-29T15:20:52.589Z,98550.88
2023-03-29T15:23:58.318Z,98553.81
2023-03-29T15:27:03.366Z,98545.44
2023-03-29T15:30:13.387Z,98539.94
2023-03-29T15:33:17.767Z,98527.75
2023-03-29T15:36:20.440Z,98539.41
2023-03-29T15:39:24.725Z,98530.25
2023-03-29T15:42:27.486Z,98530.81
2023-03-29T15:45:30.109Z,98524.06
2023-03-29T15:48:33.626Z,98523.47
2023-03-29T15:51:36.401Z,98508.00
2023-03-29T15:54:40.403Z,98518.69
2023-03-29T15:57:44.722Z,98509.34
2023-03-29T16:00:50.876Z,98503.59
2023-03-29T16:03:53.668Z,98502.56
2023-03-29T16:06:57.650Z,98508.06
2023-03-29T16:10:01.643Z,98510.41
2023-03-29T16:13:04.392Z,98509.53
2023-03-29T16:16:08.442Z,98518.59
2023-03-29T16:19:11.161Z,98517.19
2023-03-29T16:22:13.763Z,98516.88
2023-03-29T16:25:19.980Z,98506.72
2023-03-29T16:28:22.889Z,98507.19
2023-03-29T16:31:27.029Z,98498.72
2023-03-29T16:34:30.059Z,98497.63
2023-03-29T16:37:32.844Z,98494.31
2023-03-29T16:40:37.185Z,98492.88
2023-03-29T16:43:39.732Z,98500.50
2023-03-29T16:46:42.531Z,98492.97
2023-03-29T16:49:48.526Z,98481.78
2023-03-29T16:52:52.851Z,98473.69
2023-03-29T16:55:56.849Z,98478.69
2023-03-29T16:58:59.409Z,98470.28
2023-03-29T17:02:01.872Z,98471.59
2023-03-29T17:05:06.016Z,98471.59
2023-03-29T17:08:10.026Z,98480.00
2023-03-29T17:11:15.512Z,98471.25
2023-03-29T17:14:18.080Z,98479.16
2023-03-29T17:17:20.662Z,98487.00
2023-03-29T17:20:23.178Z,98491.47
2023-03-29T17:23:26.612Z,98494.75
2023-03-29T17:26:30.451Z,98492.56
2023-03-29T17:29:33.497Z,98496.84
2023-03-29T17:32:36.738Z,98490.91
2023-03-29T17:35:39.685Z,98479.81
2023-03-29T17:38:43.043Z,98471.75
2023-03-29T17:41:47.622Z,98467.88
2023-03-29T17:44:51.034Z,98459.31
2023-03-29T17:47:53.524Z,98451.94
2023-03-29T17:50:57.832Z,98452.75
2023-03-29T17:54:01.597Z,98459.25
2023-03-29T17:57:05.764Z,98458.00
2023-03-29T18:00:12.129Z,98457.19
2023-03-29T18:03:14.780Z,98447.25
2023-03-29T18:06:20.206Z,98446.81
2023-03-29T18:09:22.899Z,98452.50
2023-03-29T18:12:27.085Z,98445.56
2023-03-29T18:15:29.689Z,98452.50
2023-03-29T18:18:32.726Z,98452.38
2023-03-29T18:21:35.257Z,98459.22
2023-03-29T18:24:37.890Z,98456.75
2023-03-29T18:27:41.767Z,98468.97
2023-03-29T18:30:44.577Z,98459.66
2023-03-29T18:33:47.510Z,98454.34
2023-03-29T18:36:50.791Z,98445.22
2023-03-29T18:39:53.300Z,98457.47
2023-03-29T18:42:57.284Z,98448.38
2023-03-29T18:45:59.994Z,98448.53
2023-03-29T18:49:03.110Z,98449.34
2023-03-29T18:52:05.811Z,98443.41
2023-03-29T18:55:10.236Z,98443.31
2023-03-29T18:58:15.651Z,98435.16
2023-03-29T19:01:18.297Z,98431.97
2023-03-29T19:04:20.969Z,98439.88
2023-03-29T19:07:23.767Z,98434.81
2023-03-29T19:10:27.349Z,98433.03
2023-03-29T19:13:31.226Z,98430.22
2023-03-29T19:16:33.964Z,98439.09
2023-03-29T19:19:37.765Z,98439.34
2023-03-29T19:22:40.412Z,98457.72
2023-03-29T19:28:47.184Z,98441.47
2023-03-29T19:31:51.806Z,98438.00
2023-03-29T19:34:54.332Z,98444.25
2023-03-29T19:37:56.837Z,98443.28
2023-03-29T19:40:59.531Z,98439.47
2023-03-29T19:44:03.723Z,98428.50
2023-03-29T19:47:06.438Z,98423.84
2023-03-29T19:50:12.301Z,98419.56
2023-03-29T19:53:14.997Z,98414.56
2023-03-29T19:56:17.869Z,98410.13
2023-03-29T19:59:21.765Z,98414.56
2023-03-29T20:02:24.319Z,98407.03
2023-03-29T20:05:27.292Z,98398.34
2023-03-29T20:08:29.918Z,98391.50
2023-03-29T20:11:32.519Z,98387.16
2023-03-29T20:14:40.112Z,98380.88
2023-03-29T20:17:42.815Z,98377.44
2023-03-29T20:20:46.815Z,98371.13
2023-03-29T20:23:49.395Z,98369.94
2023-03-29T20:26:51.926Z,98365.59
2023-03-29T20:29:55.935Z,98351.44
2023-03-29T20:32:58.514Z,98353.75
2023-03-29T20:36:01.386Z,98350.19
2023-03-29T20:39:04.964Z,98358.06
2023-03-29T20:42:07.458Z,98353.72
2023-03-29T20:45:18.579Z,98349.72
2023-03-29T20:48:23.093Z,98341.19
2023-03-29T20:51:28.062Z,98352.09
2023-03-29T20:54:33.199Z,98341.34
2023-03-29T20:57:36.727Z,98333.47
2023-03-29T21:00:40.639Z,98333.16
2023-03-29T21:03:43.273Z,98329.06
2023-03-29T21:06:49.571Z,98319.00
2023-03-29T21:09:52.129Z,98326.31
2023-03-29T21:13:00.022Z,98321.50
2023-03-29T21:16:03.972Z,98319.09
2023-03-29T21:19:06.558Z,98316.59
2023-03-29T21:22:09.101Z,98303.34
2023-03-29T21:25:15.505Z,98300.59
2023-03-29T21:28:18.128Z,98301.94
2023-03-29T21:31:22.074Z,98295.13
2023-03-29T21:34:24.633Z,98284.03
2023-03-29T21:37:27.405Z,98278.59
2023-03-29T21:40:29.953Z,98276.75
2023-03-29T21:43:32.682Z,98266.38
2023-03-29T21:46:36.769Z,98259.88
2023-03-29T21:49:39.630Z,98265.44
2023-03-29T21:52:42.228Z,98250.94
2023-03-29T21:55:44.858Z,98250.44
2023-03-29T21:58:47.423Z,98246.13
2023-03-29T22:01:51.280Z,98244.31
2023-03-29T22:04:53.851Z,98242.47
2023-03-29T22:07:58.700Z,98244.88
2023-03-29T22:11:08.048Z,98237.31
2023-03-29T22:14:10.931Z,98238.28
2023-03-29T22:17:15.945Z,98234.97
2023-03-29T22:20:18.958Z,98232.47
2023-03-29T22:23:21.571Z,98240.00
2023-03-29T22:26:27.397Z,98233.41
2023-03-29T22:29:30.061Z,98230.38
2023-03-29T22:32:33.913Z,98223.88
2023-03-29T22:35:36.904Z,98231.69
2023-03-29T22:38:39.461Z,98224.66
2023-03-29T22:41:42.289Z,98231.00
2023-03-29T22:44:44.797Z,98228.25
2023-03-29T22:47:48.704Z,98229.59
2023-03-29T22:50:51.286Z,98221.41
2023-03-29T22:53:54.056Z,98235.13
2023-03-29T22:56:57.568Z,98232.53
2023-03-29T23:00:00.034Z,98236.25
2023-03-29T23:03:04.020Z,98232.53
2023-03-29T23:06:07.113Z,98240.16
2023-03-29T23:09:10.283Z,98225.84
2023-03-29T23:12:12.833Z,98236.00
2023-03-29T23:15:16.046Z,98233.53
2023-03-29T23:18:21.109Z,98223.34
2023-03-29T23:21:23.796Z,98227.75
2023-03-29T23:24:26.574Z,98225.75
2023-03-29T23:27:29.414Z,98215.06
2023-03-29T23:30:31.972Z,98219.38
2023-03-29T23:33:38.506Z,98233.00
2023-03-29T23:36:41.116Z,98235.91
2023-03-29T23:39:43.688Z,98224.84
2023-03-29T23:42:48.340Z,98227.41
2023-03-29T23:45:56.654Z,98227.59
2023-03-29T23:49:00.530Z,98239.44
2023-03-29T23:52:03.168Z,98239.63
2023-03-29T23:55:06.644Z,98235.41
2023-03-29T23:58:09.152Z,98230.94
